Time;durP1;ratioP1;P1;durP2;ratioP2;P2;SDS_P1;SDS_P2;PMS_P1;PMS_P2;Temp;Humidity;BMP_temperature;BMP_pressure;BME280_temperature;BME280_humidity;BME280_pressure;Samples;Min_cycle;Max_cycle;Signal;HPM_P1;HPM_P2
2022/08/03 00:01:53;;;;;;;9.77;2.20;;;20.00;99.90;;;;;;5041905;28;20087;-60
2022/08/03 00:04:19;;;;;;;11.18;2.92;;;20.00;99.90;;;;;;5027103;28;20048;-62
2022/08/03 00:06:45;;;;;;;9.32;2.47;;;20.00;99.90;;;;;;5030517;28;20485;-62
2022/08/03 00:09:10;;;;;;;10.55;2.38;;;19.90;99.90;;;;;;5042663;28;20044;-63
2022/08/03 00:11:36;;;;;;;7.75;2.13;;;19.90;99.90;;;;;;5016998;28;20062;-62
2022/08/03 00:14:04;;;;;;;9.93;2.33;;;19.90;99.90;;;;;;5026124;28;20064;-60
2022/08/03 00:16:29;;;;;;;7.53;2.20;;;19.90;99.90;;;;;;5039639;28;20119;-60
2022/08/03 00:18:55;;;;;;;9.25;2.72;;;19.90;99.90;;;;;;5026220;28;20062;-63
2022/08/03 00:21:21;;;;;;;4.90;2.42;;;19.90;99.90;;;;;;5038111;28;20045;-62
2022/08/03 00:23:47;;;;;;;6.95;2.28;;;19.80;99.90;;;;;;5014643;28;20044;-62
2022/08/03 00:26:13;;;;;;;9.55;2.42;;;19.80;99.90;;;;;;5006746;28;20056;-61
2022/08/03 00:28:39;;;;;;;8.60;2.50;;;19.80;99.90;;;;;;5040939;28;20080;-60
2022/08/03 00:31:05;;;;;;;8.82;2.70;;;19.80;99.90;;;;;;5023320;28;20056;-62
2022/08/03 00:33:31;;;;;;;9.25;2.78;;;19.80;99.90;;;;;;5023233;28;20146;-60
2022/08/03 00:35:57;;;;;;;8.60;2.33;;;19.80;99.90;;;;;;5039207;28;20056;-60
2022/08/03 00:38:23;;;;;;;9.43;2.63;;;19.80;99.90;;;;;;5043631;28;20126;-62
2022/08/03 00:40:49;;;;;;;7.15;2.53;;;19.70;99.90;;;;;;5042655;28;20629;-62
2022/08/03 00:43:15;;;;;;;10.32;2.10;;;19.70;99.90;;;;;;5041930;28;20443;-61
2022/08/03 00:45:42;;;;;;;10.05;2.45;;;19.70;99.90;;;;;;5043063;28;20102;-61
2022/08/03 00:48:09;;;;;;;9.48;2.67;;;19.70;99.90;;;;;;5045119;28;20122;-60
2022/08/03 00:50:39;;;;;;;7.93;2.30;;;19.70;99.90;;;;;;5039969;28;20057;-62
2022/08/03 00:53:06;;;;;;;7.38;2.67;;;19.60;99.90;;;;;;5042296;28;20499;-61
2022/08/03 00:55:34;;;;;;;8.23;2.55;;;19.60;99.90;;;;;;5045009;28;20064;-61
2022/08/03 00:58:05;;;;;;;6.97;2.50;;;19.60;99.90;;;;;;5026135;28;20612;-62
2022/08/03 01:00:32;;;;;;;7.65;2.60;;;19.60;99.90;;;;;;5022850;28;20407;-62
2022/08/03 01:02:58;;;;;;;9.73;2.80;;;19.50;99.90;;;;;;5028566;28;20041;-61
2022/08/03 01:05:24;;;;;;;10.48;2.20;;;19.50;99.90;;;;;;5029294;28;20474;-62
2022/08/03 01:08:17;;;;;;;10.38;3.15;;;19.50;99.90;;;;;;5043821;28;20048;-61
2022/08/03 01:11:20;;;;;;;10.48;2.97;;;19.50;99.90;;;;;;5043594;28;20052;-61
2022/08/03 01:14:04;;;;;;;10.10;2.65;;;19.50;99.90;;;;;;5026874;28;20062;-61
2022/08/03 01:16:40;;;;;;;11.18;2.80;;;19.40;99.90;;;;;;5042480;28;20053;-63
2022/08/03 01:19:27;;;;;;;6.93;2.40;;;19.40;99.90;;;;;;5022052;28;20146;-61
2022/08/03 01:22:18;;;;;;;9.30;2.80;;;19.40;99.90;;;;;;5039993;28;20687;-60
2022/08/03 01:24:56;;;;;;;8.90;2.65;;;19.30;99.90;;;;;;5022319;28;20053;-60
2022/08/03 01:27:32;;;;;;;11.13;2.60;;;19.30;99.90;;;;;;5012634;28;20460;-61
2022/08/03 01:30:09;;;;;;;14.75;3.30;;;19.30;99.90;;;;;;5043449;28;20072;-61
2022/08/03 01:32:53;;;;;;;9.68;2.40;;;19.30;99.90;;;;;;5039811;28;20078;-61
2022/08/03 01:35:29;;;;;;;9.00;2.75;;;19.30;99.90;;;;;;5038228;28;20048;-62
2022/08/03 01:38:01;;;;;;;13.10;2.75;;;19.30;99.90;;;;;;5025104;28;20048;-62
2022/08/03 01:40:28;;;;;;;15.23;2.70;;;19.30;99.90;;;;;;5023394;28;20057;-63
2022/08/03 01:42:56;;;;;;;9.95;2.47;;;19.20;99.90;;;;;;5040225;28;20052;-61
2022/08/03 01:45:23;;;;;;;12.90;2.50;;;19.20;99.90;;;;;;5016811;28;20486;-61
2022/08/03 01:47:51;;;;;;;5.82;2.15;;;19.20;99.90;;;;;;5014589;28;20397;-61
2022/08/03 01:50:22;;;;;;;11.25;2.20;;;19.10;99.90;;;;;;5031061;28;20379;-62
2022/08/03 01:52:49;;;;;;;9.27;2.05;;;19.10;99.90;;;;;;5030118;28;20043;-63
2022/08/03 01:55:18;;;;;;;7.40;2.58;;;19.10;99.90;;;;;;5018023;28;20094;-61
2022/08/03 01:57:46;;;;;;;10.80;2.42;;;19.10;99.90;;;;;;5046040;28;20040;-62
2022/08/03 02:00:13;;;;;;;5.30;1.92;;;19.10;99.90;;;;;;5005931;28;20136;-62
2022/08/03 02:02:41;;;;;;;5.93;2.17;;;19.10;99.90;;;;;;4999978;28;20070;-62
2022/08/03 02:05:10;;;;;;;9.05;2.53;;;19.10;99.90;;;;;;5031989;28;20546;-63
2022/08/03 02:07:36;;;;;;;12.00;2.88;;;19.00;99.90;;;;;;5024586;28;20095;-63
2022/08/03 02:10:04;;;;;;;6.75;1.90;;;19.00;99.90;;;;;;5029808;28;20113;-62
2022/08/03 02:12:33;;;;;;;8.27;2.28;;;19.00;99.90;;;;;;5031136;28;20926;-61
2022/08/03 02:15:00;;;;;;;10.38;2.58;;;19.00;99.90;;;;;;5045473;28;20054;-62
2022/08/03 02:17:27;;;;;;;8.55;1.98;;;19.00;99.90;;;;;;5044599;28;20475;-61
2022/08/03 02:19:56;;;;;;;7.60;1.92;;;19.00;99.90;;;;;;5024411;28;20590;-61
2022/08/03 02:22:23;;;;;;;8.45;2.03;;;19.00;99.90;;;;;;5046644;28;20037;-61
2022/08/03 02:24:50;;;;;;;5.32;2.10;;;18.90;99.90;;;;;;5015645;28;20055;-63
2022/08/03 02:27:28;;;;;;;9.90;2.33;;;18.90;99.90;;;;;;5046661;28;20545;-61
2022/08/03 02:30:09;;;;;;;6.88;2.00;;;18.90;99.90;;;;;;5022888;28;20461;-61
2022/08/03 02:32:37;;;;;;;7.93;2.10;;;18.90;99.90;;;;;;5033569;28;20056;-61
2022/08/03 02:35:08;;;;;;;9.25;2.08;;;18.90;99.90;;;;;;5045974;28;20052;-60
2022/08/03 02:37:40;;;;;;;6.25;2.17;;;18.90;99.90;;;;;;5043316;28;20087;-61
2022/08/03 02:40:08;;;;;;;;;;;18.90;99.90;;;;;;5024885;28;20156;-62
2022/08/03 02:42:35;;;;;;;9.05;2.13;;;18.90;99.90;;;;;;5030709;28;19920;-62
2022/08/03 02:45:05;;;;;;;10.73;2.08;;;18.80;99.90;;;;;;5044688;28;20079;-62
2022/08/03 02:47:34;;;;;;;8.18;1.98;;;18.80;99.90;;;;;;5046074;28;20060;-61
2022/08/03 02:50:01;;;;;;;14.77;2.15;;;18.80;99.90;;;;;;5044569;28;20322;-61
2022/08/03 02:52:28;;;;;;;10.82;2.70;;;18.80;99.90;;;;;;5033598;28;20072;-61
2022/08/03 02:54:58;;;;;;;8.55;2.13;;;18.80;99.90;;;;;;5042228;28;20724;-60
2022/08/03 02:57:29;;;;;;;9.60;2.10;;;18.80;99.90;;;;;;5043510;28;20045;-62
2022/08/03 02:59:57;;;;;;;13.43;2.17;;;18.80;99.90;;;;;;5024171;28;20045;-62
2022/08/03 03:02:26;;;;;;;7.25;2.22;;;18.80;99.90;;;;;;5045233;28;20041;-62
2022/08/03 03:04:54;;;;;;;7.28;2.80;;;18.80;99.90;;;;;;5044811;28;20509;-62
2022/08/03 03:07:20;;;;;;;14.10;2.40;;;18.80;99.90;;;;;;5025686;28;20056;-61
2022/08/03 03:09:46;;;;;;;8.43;2.60;;;18.80;99.90;;;;;;5042451;28;20059;-62
2022/08/03 03:12:13;;;;;;;9.18;2.65;;;18.80;99.90;;;;;;5030094;28;20040;-60
2022/08/03 03:14:39;;;;;;;8.20;2.03;;;18.80;99.90;;;;;;5032477;28;20044;-61
2022/08/03 03:17:14;;;;;;;7.85;2.15;;;18.80;99.90;;;;;;5028218;28;20090;-62
2022/08/03 03:19:41;;;;;;;12.55;2.95;;;18.70;99.90;;;;;;5044187;28;20059;-61
2022/08/03 03:22:08;;;;;;;9.25;2.05;;;18.70;99.90;;;;;;5041720;28;20529;-62
2022/08/03 03:24:36;;;;;;;9.43;2.90;;;18.70;99.90;;;;;;5023569;28;20506;-60
2022/08/03 03:27:02;;;;;;;10.77;2.20;;;18.70;99.90;;;;;;5045018;28;20068;-61
2022/08/03 03:29:28;;;;;;;8.90;2.30;;;18.70;99.90;;;;;;5042481;28;20109;-63
2022/08/03 03:31:56;;;;;;;10.30;2.63;;;18.70;99.90;;;;;;5024602;28;20178;-62
2022/08/03 03:34:22;;;;;;;5.70;2.13;;;18.60;99.90;;;;;;5038975;28;20098;-60
2022/08/03 03:36:48;;;;;;;9.88;2.47;;;18.60;99.90;;;;;;5025837;28;20410;-63
2022/08/03 03:39:14;;;;;;;8.98;2.10;;;18.60;99.90;;;;;;5033755;28;20055;-60
2022/08/03 03:41:39;;;;;;;7.78;2.28;;;18.60;99.90;;;;;;5023347;28;20056;-62
2022/08/03 03:44:05;;;;;;;11.95;2.30;;;18.60;99.90;;;;;;5044365;28;20040;-62
2022/08/03 03:46:31;;;;;;;9.55;2.38;;;18.60;99.90;;;;;;5040305;28;20595;-62
2022/08/03 03:48:57;;;;;;;9.55;2.92;;;18.60;99.90;;;;;;5043270;28;20173;-61
2022/08/03 03:51:23;;;;;;;13.30;2.55;;;18.60;99.90;;;;;;5026666;28;20689;-62
2022/08/03 03:54:00;;;;;;;9.60;2.30;;;18.60;99.90;;;;;;5026393;28;20036;-61
2022/08/03 03:56:26;;;;;;;10.88;2.70;;;18.60;99.90;;;;;;5046529;28;20102;-61
2022/08/03 03:58:52;;;;;;;15.55;2.70;;;18.60;99.90;;;;;;5042534;28;20068;-60
2022/08/03 04:01:18;;;;;;;6.60;2.28;;;18.50;99.90;;;;;;5027735;28;20128;-61
2022/08/03 04:03:44;;;;;;;12.27;2.50;;;18.50;99.90;;;;;;5044235;28;20070;-61
2022/08/03 04:11:51;;;;;;;7.22;3.05;;;18.50;99.90;;;;;;4990190;28;20385;-61
2022/08/03 04:14:25;;;;;;;8.93;2.30;;;18.50;99.90;;;;;;5043386;28;20187;-60
2022/08/03 04:16:57;;;;;;;10.05;2.70;;;18.50;99.90;;;;;;5041872;28;20045;-61
2022/08/03 04:19:41;;;;;;;13.00;2.85;;;18.50;99.90;;;;;;5025412;28;20052;-62
2022/08/03 04:22:09;;;;;;;9.50;2.83;;;18.50;99.90;;;;;;5019080;28;20044;-61
2022/08/03 04:24:47;;;;;;;14.80;2.92;;;18.50;99.90;;;;;;5043519;28;20045;-63
2022/08/03 04:27:16;;;;;;;9.75;2.67;;;18.50;99.90;;;;;;5028220;28;20040;-61
2022/08/03 04:29:46;;;;;;;8.52;2.22;;;18.50;99.90;;;;;;5025762;28;20052;-61
2022/08/03 04:32:13;;;;;;;8.80;2.65;;;18.40;99.90;;;;;;5039131;28;20032;-60
2022/08/03 04:34:39;;;;;;;10.93;2.50;;;18.50;99.90;;;;;;5020975;28;20542;-61
2022/08/03 04:37:11;;;;;;;6.07;2.55;;;18.50;99.90;;;;;;5041797;28;20041;-62
2022/08/03 04:39:40;;;;;;;8.20;2.70;;;18.50;99.90;;;;;;5023206;28;20055;-61
2022/08/03 04:42:07;;;;;;;9.75;2.53;;;18.40;99.90;;;;;;5008205;28;20097;-60
2022/08/03 04:44:43;;;;;;;8.88;2.53;;;18.50;99.90;;;;;;5031474;28;20051;-62
2022/08/03 04:47:08;;;;;;;8.60;2.65;;;18.50;99.90;;;;;;5038870;28;20445;-62
2022/08/03 04:49:38;;;;;;;13.38;2.78;;;18.50;99.90;;;;;;5041885;28;20048;-62
2022/08/03 04:52:07;;;;;;;11.60;2.70;;;18.50;99.90;;;;;;5040774;28;20049;-61
2022/08/03 04:54:44;;;;;;;11.50;3.20;;;18.60;99.90;;;;;;5007837;28;20142;-62
2022/08/03 04:57:11;;;;;;;11.32;2.50;;;18.60;99.90;;;;;;5043106;28;20042;-60
2022/08/03 04:59:37;;;;;;;13.45;3.22;;;18.60;99.90;;;;;;5026151;28;20048;-63
2022/08/03 05:02:03;;;;;;;11.70;2.78;;;18.70;99.90;;;;;;5045215;28;20514;-61
2022/08/03 05:04:29;;;;;;;8.68;2.85;;;18.70;99.90;;;;;;5023373;28;20445;-60
2022/08/03 05:06:55;;;;;;;10.45;2.53;;;18.70;99.90;;;;;;5027244;28;20115;-61
2022/08/03 05:09:21;;;;;;;13.18;2.95;;;18.70;99.90;;;;;;5028358;28;20060;-62
2022/08/03 05:11:47;;;;;;;20.27;3.35;;;18.80;99.90;;;;;;5031488;28;20053;-62
2022/08/03 05:14:13;;;;;;;11.85;2.88;;;18.80;99.90;;;;;;5028790;28;20057;-61
2022/08/03 05:16:39;;;;;;;10.60;3.25;;;18.80;99.90;;;;;;5042251;28;20072;-60
2022/08/03 05:19:04;;;;;;;11.98;2.85;;;18.90;99.90;;;;;;5025743;28;20036;-61
2022/08/03 05:21:30;;;;;;;14.40;3.17;;;18.90;99.90;;;;;;5041700;28;20041;-63
2022/08/03 05:23:56;;;;;;;15.05;3.35;;;18.90;99.90;;;;;;5027080;28;20047;-61
2022/08/03 05:26:22;;;;;;;10.00;2.70;;;18.90;99.90;;;;;;5015899;28;21639;-61
2022/08/03 05:28:48;;;;;;;16.13;3.95;;;19.00;99.90;;;;;;5041392;28;20056;-61
2022/08/03 05:31:14;;;;;;;11.63;3.10;;;19.00;99.90;;;;;;5028294;28;20458;-62
2022/08/03 05:33:39;;;;;;;11.43;3.03;;;19.00;99.90;;;;;;5032207;28;20048;-62
2022/08/03 05:36:05;;;;;;;9.48;3.30;;;19.00;99.90;;;;;;5022978;28;20392;-60
2022/08/03 05:38:32;;;;;;;13.80;3.28;;;19.10;99.90;;;;;;5041686;28;20040;-62
2022/08/03 05:40:58;;;;;;;13.68;2.70;;;19.10;99.90;;;;;;5047075;28;20064;-60
2022/08/03 05:43:24;;;;;;;13.15;2.88;;;19.20;99.90;;;;;;5045427;28;20048;-63
2022/08/03 05:45:50;;;;;;;12.40;3.75;;;19.20;99.90;;;;;;5025114;28;20060;-61
2022/08/03 05:48:15;;;;;;;9.80;3.33;;;19.20;99.90;;;;;;5048710;28;20600;-62
2022/08/03 05:50:42;;;;;;;17.58;3.50;;;19.30;99.90;;;;;;5034207;28;20388;-62
2022/08/03 05:53:08;;;;;;;13.30;3.38;;;19.30;99.90;;;;;;5020567;28;20099;-61
2022/08/03 05:55:34;;;;;;;14.27;3.00;;;19.30;99.90;;;;;;5037781;28;20048;-61
2022/08/03 05:58:02;;;;;;;12.45;2.80;;;19.40;99.90;;;;;;5050282;28;20036;-60
2022/08/03 06:00:28;;;;;;;10.02;2.97;;;19.40;99.90;;;;;;5021621;28;20048;-62
2022/08/03 06:02:54;;;;;;;11.27;2.97;;;19.50;99.90;;;;;;5030142;28;20141;-61
2022/08/03 06:05:19;;;;;;;15.32;3.28;;;19.50;99.90;;;;;;5053535;28;20094;-60
2022/08/03 06:07:45;;;;;;;7.75;3.03;;;19.60;99.90;;;;;;5034549;28;20044;-62
2022/08/03 06:10:11;;;;;;;14.27;3.25;;;19.60;99.90;;;;;;5039242;28;20080;-61
2022/08/03 06:12:39;;;;;;;11.35;3.00;;;19.70;99.90;;;;;;4999684;28;20057;-61
2022/08/03 06:15:06;;;;;;;15.90;3.60;;;19.70;99.90;;;;;;5045219;28;20052;-62
2022/08/03 06:17:32;;;;;;;10.65;3.05;;;19.80;99.90;;;;;;5049451;28;20040;-62
2022/08/03 06:19:58;;;;;;;12.68;2.97;;;19.80;99.90;;;;;;5033493;28;20076;-62
2022/08/03 06:22:23;;;;;;;15.30;3.70;;;19.80;99.90;;;;;;5044816;28;20503;-63
2022/08/03 06:24:49;;;;;;;14.85;3.22;;;19.90;99.90;;;;;;5033258;28;20045;-61
2022/08/03 06:27:15;;;;;;;14.90;3.40;;;20.00;99.90;;;;;;5049061;28;20139;-61
2022/08/03 06:29:41;;;;;;;14.80;3.63;;;20.00;99.90;;;;;;5029041;28;20057;-60
2022/08/03 06:32:07;;;;;;;13.57;3.30;;;20.10;99.90;;;;;;5042753;28;20075;-62
2022/08/03 06:34:32;;;;;;;16.40;3.45;;;20.10;99.90;;;;;;5049305;28;20107;-61
2022/08/03 06:36:58;;;;;;;12.63;3.72;;;20.20;99.90;;;;;;5043156;28;20119;-61
2022/08/03 06:39:24;;;;;;;14.52;3.58;;;20.20;99.90;;;;;;5045298;28;20486;-63
2022/08/03 06:41:51;;;;;;;10.88;3.22;;;20.30;99.90;;;;;;5036196;28;20131;-63
2022/08/03 06:44:17;;;;;;;13.02;3.10;;;20.40;99.90;;;;;;5021296;28;20804;-60
2022/08/03 06:46:43;;;;;;;21.20;4.03;;;20.40;99.90;;;;;;5046152;28;20052;-61
2022/08/03 06:49:08;;;;;;;13.88;3.88;;;20.50;99.90;;;;;;5031505;28;20102;-60
2022/08/03 06:51:34;;;;;;;12.70;3.90;;;20.60;99.90;;;;;;5046305;28;20079;-62
2022/08/03 06:54:01;;;;;;;12.88;3.55;;;20.70;99.90;;;;;;5027242;28;20525;-60
2022/08/03 06:56:26;;;;;;;14.60;3.10;;;20.80;99.90;;;;;;5012820;28;20160;-61
2022/08/03 06:58:52;;;;;;;12.18;3.38;;;20.90;99.90;;;;;;5006122;28;20055;-60
2022/08/03 07:01:18;;;;;;;14.73;4.45;;;21.00;99.90;;;;;;5024016;28;20424;-62
2022/08/03 07:03:44;;;;;;;16.95;3.70;;;21.00;99.90;;;;;;5013349;28;20048;-61
2022/08/03 07:06:10;;;;;;;13.00;3.53;;;21.10;99.90;;;;;;5028330;28;20118;-61
2022/08/03 07:08:36;;;;;;;11.07;3.47;;;21.20;99.90;;;;;;5017583;28;20047;-61
2022/08/03 07:11:02;;;;;;;10.82;3.50;;;21.30;99.90;;;;;;5020808;28;20471;-61
2022/08/03 07:13:27;;;;;;;9.48;3.20;;;21.40;99.90;;;;;;5045963;28;20048;-60
2022/08/03 07:15:53;;;;;;;16.00;4.07;;;21.40;99.90;;;;;;5044126;28;20048;-61
2022/08/03 07:18:19;;;;;;;13.02;3.88;;;21.50;99.90;;;;;;5037300;28;20048;-61
2022/08/03 07:20:45;;;;;;;14.57;3.75;;;21.60;99.90;;;;;;5010906;28;20094;-61
2022/08/03 07:23:10;;;;;;;10.95;3.67;;;21.70;99.90;;;;;;5045395;28;20543;-63
2022/08/03 07:25:36;;;;;;;12.38;3.63;;;21.80;99.90;;;;;;5041567;28;20084;-62
2022/08/03 07:28:02;;;;;;;9.75;3.50;;;21.90;99.90;;;;;;5035690;28;20128;-62
2022/08/03 07:30:28;;;;;;;14.15;3.33;;;22.00;99.90;;;;;;5027012;28;20125;-63
2022/08/03 07:32:54;;;;;;;11.48;3.53;;;22.10;99.90;;;;;;5034807;28;20557;-61
2022/08/03 07:35:21;;;;;;;15.55;4.15;;;22.10;99.90;;;;;;5035435;28;20042;-60
2022/08/03 07:37:47;;;;;;;13.82;3.90;;;22.20;99.90;;;;;;5049156;28;20485;-62
2022/08/03 07:40:13;;;;;;;11.88;3.58;;;22.30;99.90;;;;;;5048540;28;20052;-61
2022/08/03 07:42:38;;;;;;;17.10;3.83;;;22.30;99.90;;;;;;5030507;28;20051;-61
2022/08/03 07:45:05;;;;;;;13.30;3.42;;;22.40;99.90;;;;;;5038080;28;20052;-61
2022/08/03 07:47:31;;;;;;;18.30;3.72;;;22.50;99.90;;;;;;5047942;28;20475;-62
2022/08/03 07:49:57;;;;;;;13.10;3.75;;;22.60;99.90;;;;;;5042382;28;20144;-63
2022/08/03 07:55:09;;;;;;;11.63;3.35;;;22.70;99.90;;;;;;5030313;28;20124;-62
2022/08/03 07:57:35;;;;;;;12.15;3.85;;;22.80;99.90;;;;;;5029667;28;20041;-63
2022/08/03 08:00:04;;;;;;;11.88;3.72;;;22.90;99.90;;;;;;5020426;28;20091;-61
2022/08/03 08:02:29;;;;;;;11.90;3.90;;;23.00;99.90;;;;;;5052246;28;20052;-60
2022/08/03 08:04:55;;;;;;;15.10;3.67;;;23.20;99.90;;;;;;5048709;28;20112;-61
2022/08/03 08:07:21;;;;;;;16.85;4.30;;;23.20;99.90;;;;;;5048990;28;20063;-62
2022/08/03 08:09:47;;;;;;;12.02;4.10;;;23.30;99.90;;;;;;5042897;28;20102;-62
2022/08/03 08:12:12;;;;;;;16.83;3.78;;;23.40;99.90;;;;;;5045915;28;20060;-63
2022/08/03 08:14:38;;;;;;;12.98;3.70;;;23.40;99.90;;;;;;5038307;28;20044;-62
2022/08/03 08:17:04;;;;;;;14.40;3.25;;;23.50;99.90;;;;;;5016654;28;20052;-61
2022/08/03 08:19:30;;;;;;;14.65;3.92;;;23.50;99.90;;;;;;5036006;28;20107;-62
2022/08/03 08:21:56;;;;;;;14.32;3.78;;;23.70;99.90;;;;;;5019306;28;20653;-62
2022/08/03 08:24:21;;;;;;;14.05;3.70;;;23.80;99.90;;;;;;5012244;28;20056;-62
2022/08/03 08:26:47;;;;;;;9.52;3.83;;;23.80;99.90;;;;;;5035686;28;20033;-62
2022/08/03 08:29:13;;;;;;;13.98;3.70;;;23.80;99.90;;;;;;5039433;28;20073;-61
2022/08/03 08:31:39;;;;;;;15.45;3.60;;;23.90;99.90;;;;;;5042200;28;20041;-60
2022/08/03 08:34:06;;;;;;;14.80;3.53;;;24.00;99.90;;;;;;5018805;28;20088;-63
2022/08/03 08:36:35;;;;;;;14.88;3.58;;;24.10;99.90;;;;;;5021385;28;20048;-62
2022/08/03 08:39:01;;;;;;;14.68;3.53;;;24.20;99.90;;;;;;5044810;28;20044;-61
2022/08/03 08:41:27;;;;;;;11.52;3.70;;;24.30;99.90;;;;;;5031187;28;20131;-62
2022/08/03 08:43:53;;;;;;;12.40;3.75;;;24.40;99.90;;;;;;5033889;28;20044;-60
2022/08/03 08:46:20;;;;;;;13.57;3.75;;;24.40;99.90;;;;;;5044691;28;20051;-60
2022/08/03 08:48:48;;;;;;;11.15;4.22;;;24.50;99.90;;;;;;5026416;28;20049;-63
2022/08/03 08:51:17;;;;;;;13.90;3.88;;;24.60;99.90;;;;;;5044636;28;20048;-60
2022/08/03 08:53:46;;;;;;;15.55;4.13;;;24.80;99.90;;;;;;5037195;28;20041;-61
2022/08/03 08:56:15;;;;;;;17.77;4.20;;;24.80;99.90;;;;;;5043984;28;20463;-61
2022/08/03 08:58:46;;;;;;;15.07;3.72;;;24.80;99.90;;;;;;5040626;28;20048;-60
2022/08/03 09:01:12;;;;;;;11.82;3.70;;;24.90;99.90;;;;;;5020659;28;20056;-61
2022/08/03 09:03:38;;;;;;;10.52;3.65;;;25.00;99.90;;;;;;5037394;28;20049;-63
2022/08/03 09:06:04;;;;;;;11.10;3.63;;;25.10;99.90;;;;;;5038217;28;20040;-62
2022/08/03 09:08:31;;;;;;;13.93;4.05;;;25.20;99.90;;;;;;5020755;28;20045;-63
2022/08/03 09:10:57;;;;;;;11.50;3.95;;;25.10;99.90;;;;;;5037854;28;20051;-63
2022/08/03 09:13:23;;;;;;;13.88;4.00;;;25.10;99.90;;;;;;5044699;28;20098;-63
2022/08/03 09:16:10;;;;;;;12.15;3.67;;;25.20;99.90;;;;;;5026697;28;20473;-62
2022/08/03 09:18:37;;;;;;;12.32;3.90;;;25.40;99.90;;;;;;5033965;28;20091;-62
2022/08/03 09:21:28;;;;;;;19.38;3.80;;;25.50;99.90;;;;;;5029393;28;20052;-62
2022/08/03 09:23:56;;;;;;;12.10;3.90;;;25.70;99.90;;;;;;5044234;28;20053;-61
2022/08/03 09:26:27;;;;;;;12.85;3.97;;;25.90;99.90;;;;;;5026748;28;20493;-62
2022/08/03 09:29:10;;;;;;;18.73;4.22;;;26.00;99.90;;;;;;5047962;28;20059;-62
2022/08/03 09:31:41;;;;;;;8.23;3.30;;;26.20;99.90;;;;;;5027846;28;20049;-61
2022/08/03 09:34:09;;;;;;;12.38;4.05;;;26.40;99.90;;;;;;5047431;28;20474;-63
2022/08/03 09:36:43;;;;;;;13.70;4.28;;;26.50;99.90;;;;;;5013159;28;20044;-62
2022/08/03 09:39:17;;;;;;;13.77;4.22;;;26.50;99.90;;;;;;5028047;28;20041;-63
2022/08/03 09:42:10;;;;;;;17.25;4.25;;;26.60;99.90;;;;;;5044118;28;20573;-63
2022/08/03 09:44:40;;;;;;;13.70;4.57;;;26.70;99.90;;;;;;5005703;28;20064;-63
2022/08/03 09:47:11;;;;;;;13.30;3.90;;;26.80;99.90;;;;;;5017542;28;20056;-61
2022/08/03 09:49:40;;;;;;;12.80;3.92;;;26.80;99.90;;;;;;5011164;28;20048;-63
2022/08/03 09:52:17;;;;;;;16.17;4.03;;;26.90;99.90;;;;;;5046987;28;20056;-62
2022/08/03 09:54:49;;;;;;;11.07;4.55;;;27.00;99.90;;;;;;5026208;28;20053;-63
2022/08/03 09:57:23;;;;;;;14.23;4.50;;;27.00;99.70;;;;;;5028274;28;20526;-62
2022/08/03 09:59:51;;;;;;;14.23;4.32;;;27.10;99.30;;;;;;5010127;28;20055;-61
2022/08/03 10:02:22;;;;;;;11.85;4.38;;;27.10;99.50;;;;;;5024655;28;20084;-62
2022/08/03 10:04:51;;;;;;;12.90;4.30;;;27.20;99.10;;;;;;5019753;28;20134;-63
2022/08/03 10:07:21;;;;;;;13.77;4.75;;;27.30;98.90;;;;;;5038872;28;20299;-61
2022/08/03 10:10:01;;;;;;;10.43;3.58;;;27.40;98.50;;;;;;5030979;28;20657;-63
2022/08/03 10:12:28;;;;;;;16.58;3.65;;;27.40;98.50;;;;;;5028531;28;20057;-61
2022/08/03 10:14:54;;;;;;;15.00;4.30;;;27.40;98.50;;;;;;5036478;28;20048;-61
2022/08/03 10:17:21;;;;;;;11.55;3.38;;;27.50;98.20;;;;;;5051003;28;20044;-62
2022/08/03 10:19:47;;;;;;;12.80;3.50;;;27.50;98.50;;;;;;5040460;28;20372;-63
2022/08/03 10:22:27;;;;;;;16.65;4.50;;;27.70;98.20;;;;;;5023839;28;20415;-62
2022/08/03 10:25:19;;;;;;;15.93;4.05;;;27.90;98.10;;;;;;5036598;28;21007;-63
2022/08/03 10:27:50;;;;;;;15.55;4.18;;;28.10;97.90;;;;;;5031619;28;20052;-61
2022/08/03 10:30:16;;;;;;;16.80;3.78;;;28.20;97.20;;;;;;5026772;28;20048;-63
2022/08/03 10:32:54;;;;;;;14.20;3.78;;;28.30;96.90;;;;;;5041682;28;20048;-62
2022/08/03 10:35:22;;;;;;;14.75;3.22;;;28.30;97.00;;;;;;5041309;28;20048;-62
2022/08/03 10:37:54;;;;;;;13.70;3.75;;;28.40;97.10;;;;;;5037943;28;20491;-61
2022/08/03 10:40:22;;;;;;;13.35;3.63;;;28.60;96.30;;;;;;5019851;28;20490;-62
2022/08/03 10:42:53;;;;;;;12.82;3.88;;;28.50;95.90;;;;;;5042699;28;20049;-63
2022/08/03 10:45:22;;;;;;;16.17;4.18;;;28.40;95.60;;;;;;5043808;28;20048;-62
2022/08/03 10:47:49;;;;;;;11.40;4.30;;;28.40;95.80;;;;;;5023895;28;20061;-61
2022/08/03 10:50:16;;;;;;;13.10;4.10;;;28.50;95.60;;;;;;5035553;28;20211;-62
2022/08/03 10:53:01;;;;;;;12.15;3.40;;;28.60;95.20;;;;;;5038573;28;20430;-62
2022/08/03 10:58:37;;;;;;;15.65;4.70;;;28.90;94.90;;;;;;5043064;28;20040;-63
2022/08/03 11:01:10;;;;;;;13.60;4.15;;;29.10;94.60;;;;;;5039372;28;20181;-61
2022/08/03 11:03:52;;;;;;;13.43;4.22;;;29.20;93.50;;;;;;4998703;28;20083;-62
2022/08/03 11:06:23;;;;;;;17.95;4.90;;;29.30;93.10;;;;;;5047931;28;20550;-61
2022/08/03 11:09:08;;;;;;;16.17;4.45;;;29.20;92.90;;;;;;5046606;28;20041;-64
2022/08/03 11:11:34;;;;;;;14.90;4.25;;;29.20;93.10;;;;;;5035344;28;20103;-61
2022/08/03 11:14:07;;;;;;;16.75;4.55;;;29.30;93.00;;;;;;5029194;28;20515;-62
2022/08/03 11:16:41;;;;;;;16.48;4.90;;;29.30;92.50;;;;;;5043075;28;20595;-61
2022/08/03 11:19:09;;;;;;;14.90;4.20;;;29.40;92.00;;;;;;5023156;28;20406;-61
2022/08/03 11:21:56;;;;;;;13.23;4.35;;;29.40;92.20;;;;;;5041373;28;20048;-62
2022/08/03 11:24:42;;;;;;;22.98;4.90;;;29.60;92.10;;;;;;5038619;28;20568;-61
2022/08/03 11:27:14;;;;;;;21.58;5.43;;;29.60;91.70;;;;;;5044784;28;20512;-63
2022/08/03 11:29:59;;;;;;;21.98;5.53;;;29.70;90.80;;;;;;5050969;28;20487;-61
2022/08/03 11:32:37;;;;;;;17.50;4.60;;;29.70;90.50;;;;;;5044507;28;20234;-61
2022/08/03 11:35:08;;;;;;;17.05;4.22;;;29.80;90.40;;;;;;5026983;28;20167;-62
2022/08/03 11:37:35;;;;;;;17.38;4.95;;;29.80;89.30;;;;;;5028329;28;20806;-61
2022/08/03 11:40:02;;;;;;;21.50;5.18;;;29.90;88.70;;;;;;5028545;28;20057;-62
2022/08/03 11:42:34;;;;;;;15.00;4.68;;;30.00;87.50;;;;;;5027421;28;20592;-62
2022/08/03 11:45:00;;;;;;;18.42;4.80;;;30.10;87.90;;;;;;5046259;28;20576;-62
2022/08/03 11:47:28;;;;;;;23.50;5.72;;;30.20;87.40;;;;;;5045860;28;20699;-64
2022/08/03 11:49:57;;;;;;;19.83;4.63;;;30.30;88.60;;;;;;5048235;28;20045;-62
2022/08/03 11:52:24;;;;;;;17.70;4.72;;;30.30;87.50;;;;;;5030281;28;20096;-61
2022/08/03 11:54:51;;;;;;;22.35;4.45;;;30.40;87.70;;;;;;5047549;28;20106;-62
2022/08/03 11:57:33;;;;;;;19.65;5.60;;;30.60;88.50;;;;;;5029910;28;20041;-63
2022/08/03 11:59:59;;;;;;;18.52;5.13;;;30.80;86.40;;;;;;5034572;28;20155;-62
2022/08/03 12:02:25;;;;;;;21.92;5.93;;;30.90;86.30;;;;;;5027294;28;20054;-62
2022/08/03 12:04:57;;;;;;;19.48;5.00;;;31.00;85.30;;;;;;5046428;28;20128;-62
2022/08/03 12:07:26;;;;;;;18.47;5.13;;;31.00;84.00;;;;;;5047098;28;20040;-62
2022/08/03 12:10:13;;;;;;;17.02;5.28;;;31.10;83.40;;;;;;5044032;28;20398;-62
2022/08/03 12:12:41;;;;;;;18.40;4.57;;;31.30;83.50;;;;;;5022981;28;20053;-61
2022/08/03 12:15:08;;;;;;;17.05;4.97;;;31.30;82.60;;;;;;5043715;28;20087;-63
2022/08/03 12:17:36;;;;;;;19.02;4.75;;;31.30;82.50;;;;;;5026961;28;20056;-64
2022/08/03 12:20:03;;;;;;;25.17;6.25;;;31.40;81.40;;;;;;5043128;28;20052;-64
2022/08/03 12:22:33;;;;;;;26.48;5.07;;;31.40;80.50;;;;;;5044085;28;20032;-62
2022/08/03 12:24:59;;;;;;;15.48;4.88;;;31.40;79.80;;;;;;5050260;28;20048;-62
2022/08/03 12:27:28;;;;;;;13.02;4.35;;;31.30;79.50;;;;;;5030423;28;20052;-63
2022/08/03 12:29:56;;;;;;;19.50;4.93;;;31.40;79.50;;;;;;5047793;28;20083;-61
2022/08/03 12:32:22;;;;;;;20.00;4.10;;;31.50;78.40;;;;;;5039710;28;20379;-62
2022/08/03 12:34:51;;;;;;;17.25;4.68;;;31.50;78.10;;;;;;5027515;28;20053;-62
2022/08/03 12:37:19;;;;;;;15.88;4.10;;;31.70;79.50;;;;;;5022238;28;20193;-63
2022/08/03 12:40:05;;;;;;;22.13;4.05;;;31.80;77.50;;;;;;5029993;28;20045;-61
2022/08/03 12:42:34;;;;;;;24.58;4.47;;;31.80;78.40;;;;;;5045117;28;20122;-62
2022/08/03 12:45:16;;;;;;;15.82;3.55;;;31.90;75.60;;;;;;5031194;28;20048;-62
2022/08/03 12:47:53;;;;;;;14.25;3.90;;;31.80;75.00;;;;;;5029520;28;20063;-61
2022/08/03 12:50:31;;;;;;;20.10;4.55;;;31.90;74.70;;;;;;5020961;28;20041;-64
2022/08/03 12:52:58;;;;;;;23.58;4.63;;;31.90;73.10;;;;;;4991726;28;20478;-61
2022/08/03 12:55:32;;;;;;;16.08;4.40;;;31.80;73.80;;;;;;5046223;28;20582;-62
2022/08/03 12:58:02;;;;;;;18.40;4.57;;;31.80;74.30;;;;;;5041284;28;20048;-63
2022/08/03 13:00:29;;;;;;;19.17;4.63;;;31.80;73.90;;;;;;5006694;28;20098;-63
2022/08/03 13:03:06;;;;;;;17.50;4.63;;;31.80;73.90;;;;;;5016473;28;20052;-63